Time;durP1;ratioP1;P1;durP2;ratioP2;P2;SDS_P1;SDS_P2;PMS_P1;PMS_P2;Temp;Humidity;BMP_temperature;BMP_pressure;BME280_temperature;BME280_humidity;BME280_pressure;Samples;Min_cycle;Max_cycle;Signal;HPM_P1;HPM_P2
2024/03/03 00:00:38;;;;;;;8.43;6.60;;;10.20;99.90;;;;;;5052883;28;20816;-68
2024/03/03 00:03:06;;;;;;;7.40;5.70;;;10.20;99.90;;;;;;5052939;28;20462;-68
2024/03/03 00:05:33;;;;;;;7.77;6.40;;;10.20;99.90;;;;;;5053046;28;20462;-68
2024/03/03 00:08:01;;;;;;;7.80;6.00;;;10.20;99.90;;;;;;5054196;28;20742;-68
2024/03/03 00:10:28;;;;;;;6.97;6.00;;;10.20;99.90;;;;;;5056120;28;20454;-68
2024/03/03 00:12:57;;;;;;;7.60;5.67;;;10.10;99.90;;;;;;5055332;28;20454;-68
2024/03/03 00:15:24;;;;;;;7.23;5.60;;;10.10;99.90;;;;;;5055344;28;20462;-68
2024/03/03 00:17:52;;;;;;;8.90;6.33;;;10.10;99.90;;;;;;5055776;28;20455;-68
2024/03/03 00:20:19;;;;;;;6.70;5.37;;;10.10;99.90;;;;;;5055934;28;20489;-68
2024/03/03 00:22:46;;;;;;;7.70;5.97;;;10.00;99.90;;;;;;5056054;28;20518;-68
2024/03/03 00:25:14;;;;;;;8.40;6.50;;;10.00;99.90;;;;;;5056515;28;20894;-68
2024/03/03 00:27:41;;;;;;;10.30;5.77;;;9.90;1.00;;;;;;5057125;28;20468;-68
2024/03/03 00:30:12;;;;;;;9.10;6.17;;;9.90;1.00;;;;;;5057216;28;20814;-68
2024/03/03 00:32:39;;;;;;;6.83;6.13;;;9.80;1.00;;;;;;5056920;28;20848;-68
2024/03/03 00:35:09;;;;;;;8.50;6.50;;;9.70;1.00;;;;;;5056901;28;20462;-68
2024/03/03 00:37:36;;;;;;;8.50;6.17;;;9.70;1.00;;;;;;5056793;28;20463;-68
2024/03/03 00:40:04;;;;;;;8.10;6.03;;;9.70;1.00;;;;;;5056652;28;20513;-68
2024/03/03 00:42:31;;;;;;;7.53;6.43;;;9.70;1.00;;;;;;5056565;28;20549;-68
2024/03/03 00:44:58;;;;;;;8.37;6.10;;;9.80;1.00;;;;;;5056483;28;20765;-68
2024/03/03 00:47:27;;;;;;;7.13;5.60;;;9.80;1.00;;;;;;5056435;28;20484;-68
2024/03/03 00:49:55;;;;;;;8.83;5.70;;;9.70;1.00;;;;;;5056785;27;20903;-68
2024/03/03 00:52:22;;;;;;;7.07;6.00;;;9.70;1.00;;;;;;5056793;28;20490;-68
2024/03/03 00:54:49;;;;;;;7.33;5.90;;;9.70;1.00;;;;;;5056761;27;20986;-68
2024/03/03 00:57:17;;;;;;;7.70;5.83;;;9.70;1.00;;;;;;5056255;28;20458;-68
2024/03/03 00:59:44;;;;;;;6.97;5.87;;;9.70;1.00;;;;;;5056269;28;20469;-68
2024/03/03 01:02:11;;;;;;;10.60;5.87;;;9.70;1.00;;;;;;5056341;28;20490;-68
2024/03/03 01:04:40;;;;;;;8.47;6.83;;;9.70;1.00;;;;;;5056455;28;20895;-68
2024/03/03 01:07:07;;;;;;;7.87;6.13;;;9.70;1.00;;;;;;5054605;28;20983;-70
2024/03/03 01:09:38;;;;;;;6.57;5.87;;;9.60;1.00;;;;;;5055827;28;20919;-62
2024/03/03 01:12:06;;;;;;;8.30;7.00;;;9.70;1.00;;;;;;5056470;28;20899;-61
2024/03/03 01:14:33;;;;;;;7.77;6.03;;;9.70;1.00;;;;;;5056520;28;20728;-62
2024/03/03 01:17:00;;;;;;;9.70;6.80;;;9.70;1.00;;;;;;5055802;28;20490;-62
2024/03/03 01:19:28;;;;;;;9.30;6.90;;;9.70;1.00;;;;;;5056020;28;20454;-62
2024/03/03 01:21:56;;;;;;;10.40;7.00;;;9.70;1.00;;;;;;5056443;28;20943;-61
2024/03/03 01:24:24;;;;;;;9.73;6.27;;;9.70;1.00;;;;;;5056602;28;20493;-62
2024/03/03 01:26:51;;;;;;;8.80;7.20;;;9.80;1.00;;;;;;5056352;28;20487;-62
2024/03/03 01:29:18;;;;;;;10.17;7.43;;;9.80;1.00;;;;;;5056345;28;20871;-61
2024/03/03 01:31:45;;;;;;;9.67;7.50;;;9.80;1.00;;;;;;5056222;28;20455;-62
2024/03/03 01:34:12;;;;;;;9.60;7.97;;;9.80;1.00;;;;;;5056071;28;20484;-62
2024/03/03 01:36:40;;;;;;;8.50;6.70;;;9.80;1.00;;;;;;5056013;28;20462;-62
2024/03/03 01:39:09;;;;;;;8.90;7.60;;;9.80;1.00;;;;;;5056008;28;20545;-62
2024/03/03 01:41:36;;;;;;;7.17;6.07;;;9.70;1.00;;;;;;5055795;28;20513;-62
2024/03/03 01:44:04;;;;;;;8.20;5.97;;;9.80;1.00;;;;;;5055984;28;20560;-61
2024/03/03 01:46:31;;;;;;;10.07;7.17;;;9.80;1.00;;;;;;5055942;28;20772;-62
2024/03/03 01:48:58;;;;;;;10.43;7.50;;;9.80;1.00;;;;;;5055427;28;20557;-61
2024/03/03 01:51:25;;;;;;;9.10;7.30;;;9.80;1.00;;;;;;5055892;28;20759;-62
2024/03/03 01:53:53;;;;;;;10.23;7.27;;;9.80;1.00;;;;;;5055558;28;20955;-62
2024/03/03 01:56:25;;;;;;;9.00;7.30;;;9.80;1.00;;;;;;5055799;28;20461;-62
2024/03/03 01:58:53;;;;;;;11.77;8.40;;;9.80;1.00;;;;;;5055680;28;20540;-62
2024/03/03 02:01:21;;;;;;;11.13;7.60;;;9.80;1.00;;;;;;5054899;28;20516;-62
2024/03/03 02:03:49;;;;;;;10.10;7.87;;;9.80;1.00;;;;;;5055281;28;20466;-62
2024/03/03 02:06:20;;;;;;;11.47;8.23;;;9.80;24.40;;;;;;5055557;28;20500;-62
2024/03/03 02:08:48;;;;;;;9.70;8.10;;;9.80;45.10;;;;;;5055657;28;20462;-62
2024/03/03 02:11:16;;;;;;;12.87;8.20;;;9.80;49.70;;;;;;5055541;28;20887;-62
2024/03/03 02:13:44;;;;;;;11.30;8.73;;;9.80;46.00;;;;;;5055368;28;20541;-68
2024/03/03 02:16:12;;;;;;;10.93;8.67;;;9.80;79.40;;;;;;5055839;28;20454;-68
2024/03/03 02:18:39;;;;;;;11.63;8.47;;;9.90;59.80;;;;;;5055262;28;20549;-68
2024/03/03 02:21:06;;;;;;;10.67;7.90;;;9.90;52.30;;;;;;5055390;27;20522;-68
2024/03/03 02:23:35;;;;;;;9.77;7.93;;;9.90;55.30;;;;;;5055083;28;20842;-68
2024/03/03 02:26:02;;;;;;;11.33;8.47;;;9.90;68.30;;;;;;5055344;28;20458;-68
2024/03/03 02:28:30;;;;;;;10.40;8.47;;;9.80;85.40;;;;;;5055357;27;20462;-68
2024/03/03 02:30:57;;;;;;;10.47;8.93;;;9.70;99.90;;;;;;5054717;27;20459;-68
2024/03/03 02:33:25;;;;;;;14.90;9.50;;;9.70;99.90;;;;;;5054090;27;20515;-68
2024/03/03 02:35:52;;;;;;;12.50;9.23;;;9.70;99.90;;;;;;5055239;28;20481;-68
2024/03/03 02:38:19;;;;;;;10.50;8.67;;;9.80;99.90;;;;;;5054945;28;20462;-68
2024/03/03 02:40:48;;;;;;;11.37;8.40;;;9.70;99.90;;;;;;5054557;28;20466;-68
2024/03/03 02:43:15;;;;;;;11.03;8.70;;;9.70;99.90;;;;;;5054749;27;20462;-69
2024/03/03 02:45:42;;;;;;;12.50;9.40;;;9.70;99.90;;;;;;5054905;28;20490;-68
2024/03/03 02:48:10;;;;;;;11.57;8.40;;;9.80;99.90;;;;;;5055005;28;20556;-68
2024/03/03 02:50:37;;;;;;;13.17;9.83;;;9.70;99.90;;;;;;5054287;28;20458;-68
2024/03/03 02:53:04;;;;;;;13.43;10.13;;;9.60;99.90;;;;;;5054803;27;20755;-68
2024/03/03 02:55:31;;;;;;;13.10;10.07;;;9.50;99.90;;;;;;5054482;28;20576;-68
2024/03/03 02:58:00;;;;;;;13.90;8.73;;;9.60;99.90;;;;;;5054818;27;20498;-69
2024/03/03 03:00:28;;;;;;;11.40;8.93;;;9.50;99.90;;;;;;5054759;28;20914;-68
2024/03/03 03:02:55;;;;;;;13.63;8.53;;;9.40;99.90;;;;;;5054188;27;20495;-69
2024/03/03 03:05:22;;;;;;;11.27;9.03;;;9.30;99.90;;;;;;5054393;27;20470;-68
2024/03/03 03:07:49;;;;;;;12.07;9.97;;;9.20;99.90;;;;;;5054721;28;20461;-69
2024/03/03 03:10:16;;;;;;;12.40;9.30;;;9.20;99.90;;;;;;5054732;27;20511;-68
2024/03/03 03:12:44;;;;;;;10.90;8.60;;;9.20;1.00;;;;;;5054555;28;20459;-68
2024/03/03 03:15:12;;;;;;;14.43;9.20;;;9.10;1.00;;;;;;5054197;27;20501;-68
2024/03/03 03:17:39;;;;;;;12.30;9.33;;;9.20;1.00;;;;;;5054404;28;20561;-68
2024/03/03 03:20:08;;;;;;;14.00;10.10;;;9.20;1.00;;;;;;5054191;28;20561;-68
2024/03/03 03:22:35;;;;;;;11.40;9.80;;;9.20;1.00;;;;;;5054711;27;20551;-68
2024/03/03 03:25:04;;;;;;;13.40;9.87;;;9.20;1.00;;;;;;5053957;28;20477;-68
2024/03/03 03:27:32;;;;;;;15.90;10.10;;;9.30;1.00;;;;;;5054336;28;20545;-68
2024/03/03 03:29:59;;;;;;;11.50;8.60;;;9.30;1.00;;;;;;5054088;28;20527;-68
2024/03/03 03:32:28;;;;;;;12.30;9.77;;;9.30;1.00;;;;;;5054493;27;20814;-68
2024/03/03 03:34:55;;;;;;;14.00;10.83;;;9.40;1.00;;;;;;5053666;28;20458;-68
2024/03/03 03:37:22;;;;;;;14.70;11.03;;;9.40;1.00;;;;;;5122751;28;20470;-68
2024/03/03 03:39:49;;;;;;;12.03;9.90;;;9.40;1.00;;;;;;5053409;28;20458;-68
2024/03/03 03:42:17;;;;;;;14.47;9.30;;;9.40;1.00;;;;;;5053972;28;20490;-68
2024/03/03 03:44:44;;;;;;;11.63;8.40;;;9.30;1.00;;;;;;5057538;28;20454;-68
2024/03/03 03:47:11;;;;;;;12.63;9.77;;;9.30;1.00;;;;;;5057672;28;20501;-68
2024/03/03 03:49:39;;;;;;;13.50;10.10;;;9.20;1.00;;;;;;5057339;28;20554;-68
2024/03/03 03:52:07;;;;;;;14.80;9.60;;;9.20;1.00;;;;;;5057443;28;20458;-68
2024/03/03 03:54:34;;;;;;;13.83;10.63;;;9.10;1.00;;;;;;5057339;27;20542;-68
2024/03/03 03:57:02;;;;;;;15.00;11.20;;;9.00;1.00;;;;;;5057269;28;20462;-68
2024/03/03 03:59:30;;;;;;;14.87;10.40;;;9.00;1.00;;;;;;5057627;27;20485;-68
2024/03/03 04:01:58;;;;;;;12.17;10.00;;;8.90;1.00;;;;;;5057308;28;20805;-68
2024/03/03 04:04:27;;;;;;;14.83;11.30;;;8.80;1.00;;;;;;5057629;28;20462;-68
2024/03/03 04:06:55;;;;;;;13.00;11.00;;;8.80;1.00;;;;;;5057204;27;20462;-68
2024/03/03 04:09:22;;;;;;;14.10;11.50;;;8.90;1.00;;;;;;5057143;28;20943;-68
2024/03/03 04:11:49;;;;;;;16.07;11.23;;;8.80;1.00;;;;;;5057093;27;20541;-68
2024/03/03 04:14:17;;;;;;;16.10;11.40;;;8.80;4.00;;;;;;5057700;27;20515;-68
2024/03/03 04:16:45;;;;;;;15.53;11.37;;;8.80;32.30;;;;;;5057405;27;20476;-68
2024/03/03 04:19:12;;;;;;;13.70;11.30;;;8.80;10.70;;;;;;5057285;28;20770;-68
2024/03/03 04:21:42;;;;;;;16.67;12.30;;;8.80;23.80;;;;;;5056905;27;20494;-68
2024/03/03 04:24:11;;;;;;;14.63;11.40;;;8.80;39.20;;;;;;5057417;28;20746;-68
2024/03/03 04:26:38;;;;;;;12.13;10.13;;;8.70;82.30;;;;;;5057350;28;20465;-67
2024/03/03 04:29:05;;;;;;;15.33;11.23;;;8.70;80.80;;;;;;5057056;28;20738;-68
2024/03/03 04:31:33;;;;;;;14.27;10.70;;;8.70;99.90;;;;;;5056934;28;20552;-68
2024/03/03 04:34:00;;;;;;;18.20;11.50;;;8.60;99.90;;;;;;5057470;27;20454;-68
2024/03/03 04:36:27;;;;;;;14.37;11.00;;;8.70;99.90;;;;;;5056908;27;20470;-68
2024/03/03 04:38:55;;;;;;;13.90;10.00;;;8.70;99.90;;;;;;5056296;28;20514;-68
2024/03/03 04:41:23;;;;;;;13.10;11.40;;;8.50;99.90;;;;;;5056580;28;20503;-68
2024/03/03 04:43:51;;;;;;;17.80;13.53;;;8.50;99.90;;;;;;5056685;28;20954;-68
2024/03/03 04:46:19;;;;;;;16.63;11.87;;;8.50;99.90;;;;;;5056861;27;20461;-68
2024/03/03 04:48:46;;;;;;;20.80;12.27;;;8.70;99.90;;;;;;5056717;28;20895;-68
2024/03/03 04:51:14;;;;;;;15.33;11.90;;;8.60;99.90;;;;;;5056511;28;20560;-69
2024/03/03 04:53:41;;;;;;;15.97;13.10;;;8.60;99.90;;;;;;5056675;28;20454;-68
2024/03/03 04:56:08;;;;;;;15.63;12.00;;;8.70;99.90;;;;;;5055430;28;20557;-68
2024/03/03 04:58:37;;;;;;;13.60;10.80;;;8.80;99.90;;;;;;5056636;27;20462;-68
2024/03/03 05:01:04;;;;;;;15.67;12.50;;;8.80;99.90;;;;;;5056269;28;20827;-68
2024/03/03 05:03:31;;;;;;;18.07;12.13;;;8.80;99.90;;;;;;5056428;28;20536;-68
2024/03/03 05:05:59;;;;;;;16.23;10.87;;;8.70;99.90;;;;;;5056228;28;20494;-68
2024/03/03 05:08:26;;;;;;;16.60;12.40;;;8.50;99.90;;;;;;5056492;28;20534;-68
2024/03/03 05:10:53;;;;;;;14.47;11.30;;;8.50;99.90;;;;;;5056280;27;20531;-68
2024/03/03 05:13:20;;;;;;;16.07;12.20;;;8.60;99.90;;;;;;5056313;27;20953;-68
2024/03/03 05:15:49;;;;;;;17.00;12.07;;;8.60;99.90;;;;;;5056151;27;20501;-68
2024/03/03 05:18:18;;;;;;;15.70;12.67;;;8.70;99.90;;;;;;5056756;27;20462;-68
2024/03/03 05:20:45;;;;;;;15.77;12.00;;;8.70;99.90;;;;;;5056230;28;20462;-67
2024/03/03 05:23:13;;;;;;;14.60;12.03;;;8.80;99.90;;;;;;5056101;28;20585;-68
2024/03/03 05:25:40;;;;;;;16.53;11.37;;;8.80;99.90;;;;;;5055989;28;20845;-67
2024/03/03 05:28:07;;;;;;;13.63;11.23;;;8.70;99.90;;;;;;5056135;27;20462;-68
2024/03/03 05:30:36;;;;;;;15.60;11.60;;;8.70;99.90;;;;;;5056254;27;20458;-68
2024/03/03 05:33:06;;;;;;;15.70;12.03;;;8.70;99.90;;;;;;5055634;27;20458;-68
2024/03/03 05:35:33;;;;;;;16.43;12.03;;;8.70;99.90;;;;;;5056153;27;20497;-68
2024/03/03 05:38:00;;;;;;;15.50;11.60;;;8.60;99.90;;;;;;5055793;28;20498;-68
2024/03/03 05:40:28;;;;;;;16.70;12.53;;;8.70;99.90;;;;;;5056107;27;20497;-68
2024/03/03 05:42:55;;;;;;;15.77;11.67;;;8.80;99.90;;;;;;5055751;28;20501;-68
2024/03/03 05:45:22;;;;;;;15.27;10.93;;;8.80;99.90;;;;;;5055833;27;20463;-68
2024/03/03 05:47:49;;;;;;;15.60;11.77;;;8.70;95.60;;;;;;5055575;27;20469;-68
2024/03/03 05:50:18;;;;;;;13.60;11.17;;;8.70;99.90;;;;;;5055921;27;20458;-68
2024/03/03 05:52:45;;;;;;;14.93;11.27;;;8.70;92.70;;;;;;5056002;28;20486;-68
2024/03/03 05:55:12;;;;;;;14.97;10.77;;;8.60;99.90;;;;;;5055379;28;20488;-67
2024/03/03 05:57:39;;;;;;;14.07;11.50;;;8.60;99.90;;;;;;5055383;27;20463;-67
2024/03/03 06:00:08;;;;;;;14.20;12.10;;;8.60;99.90;;;;;;5055486;28;20458;-68
2024/03/03 06:02:35;;;;;;;16.10;13.13;;;8.60;99.90;;;;;;5055452;28;20494;-68
2024/03/03 06:05:03;;;;;;;14.97;11.40;;;8.60;99.90;;;;;;5055514;27;20464;-68
2024/03/03 06:07:31;;;;;;;17.00;12.03;;;8.60;99.90;;;;;;5054994;27;20466;-68
2024/03/03 06:09:59;;;;;;;13.80;11.70;;;8.60;99.90;;;;;;5055534;27;20498;-68
2024/03/03 06:12:26;;;;;;;15.20;12.10;;;8.60;99.90;;;;;;5055348;28;20501;-68
2024/03/03 06:14:54;;;;;;;14.57;11.10;;;8.50;99.90;;;;;;5054742;28;20553;-68
2024/03/03 06:17:21;;;;;;;16.57;12.30;;;8.60;99.90;;;;;;5054940;27;20560;-68
2024/03/03 06:19:49;;;;;;;15.03;11.30;;;8.50;99.90;;;;;;5055375;27;20597;-68
2024/03/03 06:22:16;;;;;;;15.73;12.30;;;8.50;99.90;;;;;;5055576;27;20494;-68
2024/03/03 06:24:44;;;;;;;16.40;11.83;;;8.60;99.90;;;;;;5055254;28;20550;-68
2024/03/03 06:27:12;;;;;;;18.73;12.77;;;8.70;99.90;;;;;;5054777;28;20549;-67
2024/03/03 06:29:39;;;;;;;14.53;11.50;;;8.70;99.90;;;;;;5055278;28;20882;-68
2024/03/03 06:32:07;;;;;;;15.07;12.13;;;8.60;99.90;;;;;;5055249;28;20458;-68
2024/03/03 06:34:34;;;;;;;16.90;12.40;;;8.60;99.90;;;;;;5054528;28;20548;-67
2024/03/03 06:37:02;;;;;;;15.40;12.00;;;8.60;99.90;;;;;;5054969;28;20513;-68
2024/03/03 06:39:29;;;;;;;15.70;11.83;;;8.60;99.90;;;;;;5054873;27;20466;-68
2024/03/03 06:41:59;;;;;;;14.23;11.60;;;8.50;99.90;;;;;;5055265;27;20463;-68
2024/03/03 06:44:26;;;;;;;15.87;12.60;;;8.50;99.90;;;;;;5055313;28;20458;-68
2024/03/03 06:46:53;;;;;;;14.47;10.53;;;8.50;99.90;;;;;;5054676;28;20560;-68
2024/03/03 06:49:20;;;;;;;16.53;12.70;;;8.50;99.90;;;;;;5054089;28;20548;-68
2024/03/03 06:51:48;;;;;;;16.43;11.90;;;8.50;99.90;;;;;;5054333;28;20498;-68
2024/03/03 06:54:15;;;;;;;19.07;13.13;;;8.40;99.90;;;;;;5054475;27;20543;-67
2024/03/03 06:56:42;;;;;;;15.90;12.27;;;8.50;99.90;;;;;;5054811;28;20458;-67
2024/03/03 06:59:11;;;;;;;15.63;11.37;;;8.50;99.90;;;;;;5054521;28;20497;-68
2024/03/03 07:01:38;;;;;;;14.30;11.10;;;8.50;99.90;;;;;;5054668;28;20461;-67
2024/03/03 07:04:13;;;;;;;16.40;11.83;;;8.60;99.90;;;;;;5054242;27;20585;-67
2024/03/03 07:06:41;;;;;;;13.60;11.40;;;8.70;99.90;;;;;;5054869;28;20470;-68
2024/03/03 07:09:09;;;;;;;16.00;13.20;;;8.80;99.90;;;;;;5054324;27;20766;-67
2024/03/03 07:11:36;;;;;;;17.77;14.17;;;8.90;93.40;;;;;;5054479;28;20786;-67
2024/03/03 07:14:05;;;;;;;14.70;11.97;;;9.00;48.90;;;;;;5054477;28;20461;-68
2024/03/03 07:16:34;;;;;;;16.67;12.23;;;9.10;78.50;;;;;;5054251;28;20469;-67
2024/03/03 07:19:01;;;;;;;16.40;13.27;;;9.10;15.40;;;;;;5052426;28;20902;-67
2024/03/03 07:21:29;;;;;;;16.73;11.90;;;9.10;8.90;;;;;;5053778;28;20462;-67
2024/03/03 07:23:57;;;;;;;14.93;12.20;;;9.10;2.40;;;;;;5054595;27;21031;-67
2024/03/03 07:26:24;;;;;;;18.73;12.67;;;9.20;2.00;;;;;;5054357;27;20860;-67
2024/03/03 07:28:52;;;;;;;13.50;11.70;;;9.30;1.00;;;;;;5054333;28;20537;-67
2024/03/03 07:31:19;;;;;;;17.03;11.93;;;9.30;11.30;;;;;;5054337;28;20914;-67
2024/03/03 07:33:48;;;;;;;15.67;12.77;;;9.30;3.70;;;;;;5054240;28;20455;-67
2024/03/03 07:36:15;;;;;;;16.87;12.33;;;9.30;1.00;;;;;;5054157;28;20556;-67
2024/03/03 07:38:43;;;;;;;15.23;11.33;;;9.30;1.00;;;;;;5054155;28;20462;-67
2024/03/03 07:41:10;;;;;;;15.00;12.10;;;9.40;1.00;;;;;;5053710;28;20462;-68
2024/03/03 07:43:37;;;;;;;14.80;12.47;;;9.50;1.00;;;;;;5053857;28;21026;-68
2024/03/03 07:46:05;;;;;;;14.77;11.60;;;9.50;1.00;;;;;;5054403;28;20952;-68
2024/03/03 07:48:32;;;;;;;15.67;11.67;;;9.60;1.00;;;;;;5054198;27;20514;-67
2024/03/03 07:51:03;;;;;;;13.30;11.70;;;9.60;1.00;;;;;;5083241;27;20466;-67
2024/03/03 07:53:31;;;;;;;15.93;12.43;;;9.60;1.00;;;;;;5033603;28;20466;-67
2024/03/03 07:55:58;;;;;;;14.00;11.43;;;9.70;1.00;;;;;;5033958;28;20483;-67
2024/03/03 07:58:26;;;;;;;16.80;12.37;;;9.80;1.00;;;;;;5034030;28;20455;-68
2024/03/03 08:00:53;;;;;;;15.37;11.53;;;9.90;1.00;;;;;;5033377;28;20463;-67
2024/03/03 08:03:21;;;;;;;15.00;12.43;;;10.00;1.00;;;;;;5033738;28;20527;-67
2024/03/03 08:05:48;;;;;;;16.10;13.30;;;10.00;1.00;;;;;;5033093;28;20455;-67
2024/03/03 08:08:17;;;;;;;22.50;16.90;;;10.10;1.00;;;;;;5033498;28;20469;-67
2024/03/03 08:10:44;;;;;;;20.77;17.80;;;10.30;1.00;;;;;;5033877;28;20463;-67
2024/03/03 08:13:12;;;;;;;20.80;15.73;;;10.30;1.00;;;;;;5033538;28;20888;-67
2024/03/03 08:15:39;;;;;;;17.00;13.27;;;10.50;1.00;;;;;;5033913;28;20520;-68
2024/03/03 08:18:07;;;;;;;14.27;11.73;;;10.50;1.00;;;;;;5033763;28;20463;-68
2024/03/03 08:20:34;;;;;;;16.73;12.43;;;10.60;1.00;;;;;;5033633;28;20463;-67
2024/03/03 08:23:02;;;;;;;16.00;12.10;;;10.60;1.00;;;;;;5033528;28;20948;-67
2024/03/03 08:25:31;;;;;;;14.43;11.70;;;10.70;1.00;;;;;;5033020;28;20503;-68
2024/03/03 08:28:02;;;;;;;14.33;11.97;;;10.80;1.00;;;;;;5033560;28;20953;-68
2024/03/03 08:30:30;;;;;;;17.10;12.93;;;10.90;99.90;;;;;;5036551;28;20511;-68
2024/03/03 08:32:58;;;;;;;15.13;12.43;;;10.80;99.90;;;;;;5036410;28;20466;-67
2024/03/03 08:35:25;;;;;;;13.77;11.83;;;10.80;99.90;;;;;;5036875;28;20459;-68
2024/03/03 08:37:54;;;;;;;15.27;12.90;;;10.80;99.90;;;;;;5037166;28;20434;-68
2024/03/03 08:40:21;;;;;;;15.17;11.57;;;10.90;99.90;;;;;;5039761;28;20480;-67
2024/03/03 08:42:50;;;;;;;15.60;12.87;;;11.00;99.90;;;;;;5055414;28;20454;-67
2024/03/03 08:45:18;;;;;;;14.50;11.20;;;11.00;99.90;;;;;;5054878;28;20466;-68
2024/03/03 08:47:45;;;;;;;15.13;10.70;;;11.20;99.90;;;;;;5055574;28;20548;-68
2024/03/03 08:50:14;;;;;;;15.13;11.10;;;11.30;99.90;;;;;;5056041;28;20455;-68
2024/03/03 08:52:42;;;;;;;17.20;12.27;;;11.60;99.90;;;;;;5055334;28;20959;-67
2024/03/03 08:55:09;;;;;;;14.33;10.70;;;11.80;99.90;;;;;;5055591;28;20490;-68
2024/03/03 08:57:37;;;;;;;16.70;12.70;;;11.70;1.00;;;;;;5056027;28;20469;-68
2024/03/03 09:00:14;;;;;;;13.70;11.67;;;11.90;1.00;;;;;;5056738;28;20462;-69
2024/03/03 09:02:41;;;;;;;16.50;12.20;;;12.00;1.00;;;;;;5056972;28;20821;-61
2024/03/03 09:05:10;;;;;;;14.70;12.67;;;12.10;1.00;;;;;;5055144;28;20446;-61
2024/03/03 09:07:39;;;;;;;15.97;12.73;;;12.20;1.00;;;;;;5054925;28;20462;-62
2024/03/03 09:10:08;;;;;;;13.83;12.30;;;12.30;1.00;;;;;;5055034;28;20515;-63
2024/03/03 09:12:35;;;;;;;15.30;12.70;;;12.50;1.00;;;;;;5054592;28;20460;-63
2024/03/03 09:15:02;;;;;;;13.60;12.00;;;12.70;1.00;;;;;;5054897;28;20450;-64
2024/03/03 09:17:31;;;;;;;15.60;12.30;;;12.80;1.00;;;;;;5054358;28;20570;-63
2024/03/03 09:19:58;;;;;;;12.73;11.47;;;13.00;1.00;;;;;;5055836;28;20467;-63
2024/03/03 09:22:26;;;;;;;17.50;13.70;;;13.30;1.00;;;;;;5056622;28;20465;-62
2024/03/03 09:24:53;;;;;;;14.23;11.80;;;13.50;1.00;;;;;;5055042;28;20490;-63
2024/03/03 09:27:23;;;;;;;13.33;11.30;;;13.70;1.00;;;;;;5055065;28;20553;-63
2024/03/03 09:29:53;;;;;;;14.67;10.30;;;13.90;99.90;;;;;;5055577;28;20562;-63
2024/03/03 09:32:21;;;;;;;12.77;10.57;;;14.10;99.90;;;;;;5055727;28;20526;-63
2024/03/03 09:34:51;;;;;;;11.43;10.03;;;14.50;99.90;;;;;;5055674;28;20454;-63
2024/03/03 09:37:19;;;;;;;12.10;10.80;;;14.70;11.50;;;;;;5054923;28;20458;-64
2024/03/03 09:39:46;;;;;;;13.97;10.70;;;14.80;1.00;;;;;;5055929;28;20466;-62
2024/03/03 09:42:15;;;;;;;10.70;9.60;;;15.10;1.00;;;;;;5052732;28;20799;-64
2024/03/03 09:44:43;;;;;;;14.97;10.63;;;15.20;1.00;;;;;;5054081;28;20584;-63
2024/03/03 09:47:13;;;;;;;11.27;10.07;;;15.10;99.90;;;;;;5053055;28;20454;-63
2024/03/03 09:49:42;;;;;;;16.17;10.90;;;15.20;99.90;;;;;;5052842;28;20466;-63
2024/03/03 09:52:13;;;;;;;14.47;11.53;;;15.20;1.00;;;;;;5052592;28;20487;-61
2024/03/03 09:54:42;;;;;;;11.30;10.07;;;15.20;1.00;;;;;;5053033;28;20489;-60
2024/03/03 09:57:13;;;;;;;14.30;11.97;;;15.00;99.90;;;;;;5054460;28;20535;-60
2024/03/03 09:59:41;;;;;;;13.33;10.60;;;15.00;99.90;;;;;;5053490;28;20462;-60
2024/03/03 10:02:15;;;;;;;12.10;10.37;;;15.20;1.00;;;;;;5053325;28;20800;-60
2024/03/03 10:04:44;;;;;;;11.60;10.40;;;15.10;99.90;;;;;;5052614;28;20486;-60
2024/03/03 10:07:21;;;;;;;11.77;9.83;;;14.50;99.90;;;;;;5053348;28;20828;-62
2024/03/03 10:09:55;;;;;;;10.33;9.13;;;14.80;99.90;;;;;;5053651;28;20454;-62
2024/03/03 10:12:24;;;;;;;11.10;9.30;;;15.70;99.90;;;;;;5054584;27;20461;-61
2024/03/03 10:14:55;;;;;;;10.63;9.40;;;16.70;1.00;;;;;;5055325;28;20502;-60
2024/03/03 10:17:22;;;;;;;11.67;9.57;;;17.50;99.90;;;;;;5054734;28;20773;-61
2024/03/03 10:19:51;;;;;;;11.53;9.00;;;17.70;99.90;;;;;;5055426;27;20462;-61
2024/03/03 10:22:21;;;;;;;9.67;8.67;;;18.20;18.00;;;;;;5055599;27;20480;-61
2024/03/03 10:24:49;;;;;;;10.20;8.93;;;18.50;1.00;;;;;;5055481;27;20494;-61
2024/03/03 10:27:17;;;;;;;9.70;8.13;;;18.80;1.00;;;;;;5055264;27;20459;-61
2024/03/03 10:29:47;;;;;;;8.50;7.30;;;19.10;1.00;;;;;;5055135;28;20832;-61
2024/03/03 10:32:15;;;;;;;9.03;8.13;;;18.90;1.00;;;;;;5055130;27;20492;-61
2024/03/03 10:34:43;;;;;;;8.90;7.90;;;19.30;1.00;;;;;;5054837;28;20900;-61
2024/03/03 10:37:12;;;;;;;8.67;7.77;;;19.50;1.00;;;;;;5054160;28;20527;-61
2024/03/03 10:39:41;;;;;;;10.60;6.67;;;19.60;1.00;;;;;;5054629;27;20458;-61
2024/03/03 10:42:10;;;;;;;6.83;6.00;;;19.50;1.00;;;;;;5055291;27;20463;-61
2024/03/03 10:44:38;;;;;;;6.53;5.50;;;19.70;1.00;;;;;;5055330;27;20494;-61
2024/03/03 10:47:08;;;;;;;10.30;5.40;;;20.00;99.90;;;;;;5054706;28;20787;-61
2024/03/03 10:49:36;;;;;;;6.40;5.80;;;20.20;99.90;;;;;;5054467;27;20962;-61
2024/03/03 10:52:04;;;;;;;8.10;5.37;;;20.20;99.90;;;;;;5052673;28;20466;-61
2024/03/03 10:54:32;;;;;;;4.77;4.37;;;19.20;99.90;;;;;;5051650;28;20486;-61
2024/03/03 10:57:02;;;;;;;5.80;5.20;;;19.40;99.90;;;;;;5052208;28;20458;-61
2024/03/03 10:59:31;;;;;;;6.00;5.40;;;19.70;99.90;;;;;;5053145;27;20459;-61
2024/03/03 11:01:59;;;;;;;5.80;5.30;;;19.90;99.90;;;;;;5052440;28;20469;-62
2024/03/03 11:04:29;;;;;;;5.90;5.30;;;19.80;99.90;;;;;;5052631;28;20927;-61
2024/03/03 11:06:59;;;;;;;7.40;5.50;;;19.70;99.90;;;;;;5052009;28;20557;-61
2024/03/03 11:09:27;;;;;;;6.10;5.50;;;20.00;99.90;;;;;;5051465;28;20490;-62
2024/03/03 11:12:00;;;;;;;7.00;5.90;;;20.30;99.90;;;;;;5050283;28;20569;-61
2024/03/03 11:14:34;;;;;;;6.07;5.50;;;20.40;99.90;;;;;;5032573;28;20447;-62
2024/03/03 11:17:06;;;;;;;6.10;5.23;;;20.70;99.90;;;;;;5032842;28;20474;-61
2024/03/03 11:19:40;;;;;;;7.27;5.87;;;20.40;99.90;;;;;;5039960;28;20451;-61
2024/03/03 11:22:12;;;;;;;5.53;5.03;;;19.70;99.90;;;;;;5053433;28;20468;-62
2024/03/03 11:24:41;;;;;;;5.20;4.70;;;19.50;99.90;;;;;;5054660;28;20930;-61
2024/03/03 11:27:14;;;;;;;5.93;4.67;;;19.60;99.90;;;;;;5053922;28;20809;-62
2024/03/03 11:29:44;;;;;;;6.00;5.37;;;19.80;99.90;;;;;;5052759;28;20462;-62
2024/03/03 11:32:13;;;;;;;5.40;4.90;;;19.30;99.90;;;;;;5052267;28;20465;-61
2024/03/03 11:34:43;;;;;;;5.73;5.13;;;19.50;99.90;;;;;;5052765;28;20538;-61
2024/03/03 11:37:12;;;;;;;5.87;5.37;;;19.40;99.90;;;;;;5052678;28;20758;-62
2024/03/03 11:39:51;;;;;;;5.80;5.30;;;19.50;99.90;;;;;;5052399;28;20458;-62
2024/03/03 11:42:28;;;;;;;7.73;4.97;;;20.00;99.90;;;;;;5052694;28;20458;-63
2024/03/03 11:44:57;;;;;;;6.40;5.80;;;20.50;99.90;;;;;;5053368;28;20498;-63
2024/03/03 11:47:25;;;;;;;6.47;5.87;;;20.60;99.90;;;;;;5054518;28;20521;-64
2024/03/03 11:49:53;;;;;;;6.53;5.70;;;20.60;99.90;;;;;;5053048;28;20458;-64
2024/03/03 11:52:39;;;;;;;6.70;6.10;;;19.60;99.90;;;;;;5052099;28;20489;-65
2024/03/03 11:55:09;;;;;;;7.57;5.73;;;19.20;99.90;;;;;;5051577;28;20947;-63
2024/03/03 11:57:40;;;;;;;6.60;5.20;;;19.20;99.90;;;;;;5052737;28;20557;-64
2024/03/03 12:00:16;;;;;;;6.43;5.70;;;19.20;99.90;;;;;;5052979;28;20468;-64
2024/03/03 12:02:45;;;;;;;5.90;5.30;;;19.50;99.90;;;;;;5052510;28;20879;-64
2024/03/03 12:05:14;;;;;;;9.70;5.63;;;20.00;99.90;;;;;;5055536;28;20500;-64
2024/03/03 12:07:44;;;;;;;5.80;5.30;;;20.60;99.90;;;;;;5055883;28;20813;-64
2024/03/03 12:10:17;;;;;;;7.30;6.13;;;20.70;99.90;;;;;;5055583;28;20958;-64
2024/03/03 12:12:51;;;;;;;5.70;5.00;;;21.00;99.90;;;;;;5055616;28;20508;-64
2024/03/03 12:15:22;;;;;;;5.50;4.80;;;21.00;99.90;;;;;;5055353;28;20510;-65
2024/03/03 12:17:51;;;;;;;8.80;6.00;;;21.20;99.90;;;;;;5054989;28;20462;-65
2024/03/03 12:20:19;;;;;;;6.93;6.23;;;21.30;99.90;;;;;;5055403;28;20758;-65
2024/03/03 12:22:49;;;;;;;6.87;6.17;;;21.00;99.90;;;;;;5056865;28;20465;-64
2024/03/03 12:25:19;;;;;;;8.13;6.63;;;21.00;99.90;;;;;;5046996;28;20494;-64
2024/03/03 12:27:52;;;;;;;7.27;6.57;;;21.20;99.90;;;;;;5036963;28;20467;-64
2024/03/03 12:30:23;;;;;;;6.67;5.93;;;21.20;99.90;;;;;;5036849;28;20463;-64
2024/03/03 12:32:52;;;;;;;7.63;7.03;;;21.10;99.90;;;;;;5037330;28;20495;-64
2024/03/03 12:35:20;;;;;;;8.80;7.00;;;21.30;99.90;;;;;;5036334;28;20787;-64
2024/03/03 12:37:47;;;;;;;6.40;5.73;;;21.60;99.90;;;;;;5035391;28;20568;-64
2024/03/03 12:40:15;;;;;;;6.70;6.00;;;21.50;99.90;;;;;;5035419;28;20498;-64
2024/03/03 12:42:43;;;;;;;8.63;7.27;;;21.70;99.90;;;;;;5034775;28;20558;-64
2024/03/03 12:45:16;;;;;;;8.40;6.73;;;21.30;99.90;;;;;;5034037;28;20597;-64
2024/03/03 12:47:45;;;;;;;7.00;6.37;;;21.10;99.90;;;;;;5034286;28;20744;-64
2024/03/03 12:50:13;;;;;;;7.50;6.80;;;21.10;99.90;;;;;;5034568;28;20888;-64